This demonstration page uses our WeatherBlox Daily Observations layout. Learn more.

Left ArrowRight Arrow

39.08367, -84.50855

Hourly Observations for May 13, 2021

Temp ( °F °C ) Dew Point ( °F °C ) Humidity (%) Winds ( mph kmh ) Pressure ( in mb ) Visibility ( mi km ) Precip ( " mm )
12:53 am 00:53 Clear 42 5.6 40 4.4 92 92 N N/A 30.38 1029 10 16.0934 N/A
1:53 am 01:53 Clear 42 5.6 40 4.4 92 92 N N/A 30.38 1029 10 16.0934 N/A
2:53 am 02:53 Clear 39 3.9 39 3.9 100 100 N N/A 30.37 1029 10 16.0934 N/A
3:53 am 03:53 Clear 38 3.3 38 3.3 100 100 N N/A 30.37 1028 10 16.0934 N/A
4:53 am 04:53 Clear 37 2.8 37 2.8 100 100 E 3 6 30.37 1029 7 11.26538 N/A
5:30 am 05:30 Clear with Mist and Fog 37 2.8 37 2.8 100 100 N N/A 30.4 1030 0.75 1.207005 N/A
5:37 am 05:37 Clear with Mist and Fog 37 2.8 37 2.8 100 100 N N/A 30.4 1030 2.5 4.02335 N/A
5:44 am 05:44 Clear with Mist and Fog 37 2.8 37 2.8 100 100 N N/A 30.4 1030 5 8.0467 N/A
5:53 am 05:53 Clear 37 2.8 37 2.8 100 100 N N/A 30.38 1029 10 16.0934 N/A
6:03 am 06:03 Clear with Mist and Fog 37 2.8 36 2.2 96 96 N N/A 30.4 1030 2 3.21868 N/A
6:11 am 06:11 Clear 37 2.8 37 2.8 100 100 N N/A 30.4 1030 10 16.0934 N/A
6:53 am 06:53 Sunny 36 2.2 36 2.2 100 100 N N/A 30.4 1029 10 16.0934 N/A
7:53 am 07:53 Sunny 42 5.6 40 4.4 92 92 N N/A 30.41 1030 10 16.0934 N/A
8:53 am 08:53 Sunny 50 10 41 5 71 71 N N/A 30.42 1030 10 16.0934 N/A
9:53 am 09:53 Sunny 57 13.9 40 4.4 53 53 VRB 3 6 30.41 1030 10 16.0934 N/A
12:53 pm 12:53 Sunny 64 17.8 35 1.7 34 34 E 10 17 30.39 1029 10 16.0934 N/A
1:53 pm 13:53 Sunny 65 18.3 31 -0.6 28 28 E 10 17 30.36 1028 10 16.0934 N/A
3:53 pm 15:53 Mostly Sunny 67 19.4 31 -0.6 26 26 ENE 12 19 30.33 1027 10 16.0934 N/A
4:53 pm 16:53 Mostly Sunny 66 18.9 30 -1.1 26 26 VRB 5 7 30.31 1027 10 16.0934 N/A
5:53 pm 17:53 Partly Cloudy 67 19.4 31 -0.6 26 26 ENE 8 13 30.3 1026 10 16.0934 N/A
6:53 pm 18:53 Sunny 65 18.3 31 -0.6 28 28 ENE 6 9 30.29 1026 10 16.0934 N/A
7:53 pm 19:53 Partly Cloudy 61 16.1 34 1.1 36 36 ENE 6 9 30.29 1026 10 16.0934 N/A
8:53 pm 20:53 Clear 55 12.8 39 3.9 55 55 N N/A 30.29 1026 10 16.0934 N/A
9:53 pm 21:53 Clear 50 10 40 4.4 68 68 N N/A 30.31 1026 10 16.0934 N/A
10:53 pm 22:53 Clear 47 8.3 40 4.4 77 77 N N/A 30.32 1027 10 16.0934 N/A
11:53 pm 23:53 Clear 46 7.8 40 4.4 79 79 N N/A 30.32 1027 10 16.0934 N/A

Powered by AerisWeather